Anvil, Mississippi
Current Conditions -  °F | °C
As of 5:15 PM on Thursday 27 Nov 2014 (Local Time) from KCRX Reporting Station
Broken Clouds Broken Clouds  
Wind Chill:   Ceiling: 3400
Heat Index:   Visibility: NA
Dew Point: -3°   Wind: 3mph
Humidity: 65%   Direction: 350°N
Pressure: 30.47"   Gusts: NA
Location:  34.9009°N, 88.9211°W
Report Text: KCRX 272315Z AUTO 35003KT BKN034 03/M03 A3047 RMK AO2
Loading
Personal Weather Stations






























Interactive Weather Map New forecast layout! Learn more

10-Day Weather Forecast

Advertisements
Track Severe Weather on mobile